sensor_id;sensor_type;location;lat;lon;timestamp;pressure;altitude;pressure_sealevel;temperature;humidity
73245;BME280;61460;41.158;-73.238;2023-02-04T00:00:51;102207.15;;;21.82;31.93
73245;BME280;61460;41.158;-73.238;2023-02-04T00:03:22;102210.61;;;21.84;31.65
73245;BME280;61460;41.158;-73.238;2023-02-04T00:05:52;102214.85;;;21.85;31.44
73245;BME280;61460;41.158;-73.238;2023-02-04T00:08:23;102222.28;;;21.81;31.91
73245;BME280;61460;41.158;-73.238;2023-02-04T00:10:54;102226.10;;;21.69;31.69
73245;BME280;61460;41.158;-73.238;2023-02-04T00:13:25;102235.76;;;21.93;31.56
73245;BME280;61460;41.158;-73.238;2023-02-04T00:15:55;102230.08;;;21.87;31.91
73245;BME280;61460;41.158;-73.238;2023-02-04T00:18:26;102260.30;;;21.78;31.74
73245;BME280;61460;41.158;-73.238;2023-02-04T00:20:56;102245.13;;;21.91;31.31
73245;BME280;61460;41.158;-73.238;2023-02-04T00:23:27;102241.13;;;21.77;31.84
73245;BME280;61460;41.158;-73.238;2023-02-04T00:25:58;102239.81;;;21.58;31.75
73245;BME280;61460;41.158;-73.238;2023-02-04T00:28:28;102245.75;;;21.70;31.53
73245;BME280;61460;41.158;-73.238;2023-02-04T00:30:59;102232.29;;;21.74;31.84
73245;BME280;61460;41.158;-73.238;2023-02-04T00:33:30;102245.68;;;21.87;32.04
73245;BME280;61460;41.158;-73.238;2023-02-04T00:36:00;102266.61;;;21.67;31.92
73245;BME280;61460;41.158;-73.238;2023-02-04T00:38:31;102265.38;;;21.76;31.71
73245;BME280;61460;41.158;-73.238;2023-02-04T00:41:02;102271.70;;;21.66;31.60
73245;BME280;61460;41.158;-73.238;2023-02-04T00:43:32;102265.22;;;21.91;31.07
73245;BME280;61460;41.158;-73.238;2023-02-04T00:46:03;102274.21;;;21.96;31.31
73245;BME280;61460;41.158;-73.238;2023-02-04T00:48:33;102266.38;;;22.05;31.49
73245;BME280;61460;41.158;-73.238;2023-02-04T00:51:04;102273.93;;;21.72;32.36
73245;BME280;61460;41.158;-73.238;2023-02-04T00:53:35;102295.24;;;21.62;32.03
73245;BME280;61460;41.158;-73.238;2023-02-04T00:56:06;102292.88;;;21.84;31.73
73245;BME280;61460;41.158;-73.238;2023-02-04T00:58:36;102298.10;;;22.02;31.52
73245;BME280;61460;41.158;-73.238;2023-02-04T01:01:07;102318.80;;;22.30;31.34
73245;BME280;61460;41.158;-73.238;2023-02-04T01:03:37;102337.70;;;22.26;31.31
73245;BME280;61460;41.158;-73.238;2023-02-04T01:06:08;102304.00;;;22.28;31.48
73245;BME280;61460;41.158;-73.238;2023-02-04T01:08:39;102324.31;;;22.10;31.67
73245;BME280;61460;41.158;-73.238;2023-02-04T01:11:09;102315.24;;;21.99;31.50
73245;BME280;61460;41.158;-73.238;2023-02-04T01:13:40;102323.18;;;22.07;31.37
73245;BME280;61460;41.158;-73.238;2023-02-04T01:16:12;102335.39;;;22.08;30.82
73245;BME280;61460;41.158;-73.238;2023-02-04T01:18:41;102313.34;;;22.17;30.94
73245;BME280;61460;41.158;-73.238;2023-02-04T01:21:12;102322.86;;;22.18;31.12
73245;BME280;61460;41.158;-73.238;2023-02-04T01:23:43;102339.18;;;22.32;30.88
73245;BME280;61460;41.158;-73.238;2023-02-04T01:26:13;102329.10;;;21.99;31.36
73245;BME280;61460;41.158;-73.238;2023-02-04T01:28:44;102338.60;;;22.20;31.09
73245;BME280;61460;41.158;-73.238;2023-02-04T01:31:15;102331.73;;;22.32;31.07
73245;BME280;61460;41.158;-73.238;2023-02-04T01:33:45;102351.52;;;22.74;30.26
73245;BME280;61460;41.158;-73.238;2023-02-04T01:36:16;102358.04;;;22.59;30.43
73245;BME280;61460;41.158;-73.238;2023-02-04T01:38:47;102360.22;;;22.70;30.39
73245;BME280;61460;41.158;-73.238;2023-02-04T01:41:17;102359.01;;;22.42;30.89
73245;BME280;61460;41.158;-73.238;2023-02-04T01:43:48;102356.64;;;22.29;30.84
73245;BME280;61460;41.158;-73.238;2023-02-04T01:46:18;102354.24;;;22.47;30.84
73245;BME280;61460;41.158;-73.238;2023-02-04T01:48:49;102366.62;;;22.63;30.58
73245;BME280;61460;41.158;-73.238;2023-02-04T01:51:25;102359.54;;;22.98;29.81
73245;BME280;61460;41.158;-73.238;2023-02-04T01:53:50;102377.12;;;22.77;30.47
73245;BME280;61460;41.158;-73.238;2023-02-04T01:56:23;102364.64;;;22.84;30.36
73245;BME280;61460;41.158;-73.238;2023-02-04T01:58:53;102383.23;;;22.53;30.62
73245;BME280;61460;41.158;-73.238;2023-02-04T02:03:53;102373.44;;;22.50;30.77
73245;BME280;61460;41.158;-73.238;2023-02-04T02:06:23;102377.64;;;22.86;29.98
73245;BME280;61460;41.158;-73.238;2023-02-04T02:08:54;102381.69;;;22.97;29.83
73245;BME280;61460;41.158;-73.238;2023-02-04T02:11:25;102381.89;;;22.88;30.04
73245;BME280;61460;41.158;-73.238;2023-02-04T02:13:56;102380.62;;;22.88;30.18
73245;BME280;61460;41.158;-73.238;2023-02-04T02:16:26;102391.10;;;22.55;30.43
73245;BME280;61460;41.158;-73.238;2023-02-04T02:18:57;102393.93;;;22.48;30.37
73245;BME280;61460;41.158;-73.238;2023-02-04T02:21:33;102378.51;;;22.67;30.23
73245;BME280;61460;41.158;-73.238;2023-02-04T02:23:58;102391.57;;;22.95;29.62
73245;BME280;61460;41.158;-73.238;2023-02-04T02:26:29;102401.29;;;22.94;29.68
73245;BME280;61460;41.158;-73.238;2023-02-04T02:28:59;102399.01;;;22.96;29.76
73245;BME280;61460;41.158;-73.238;2023-02-04T02:31:30;102398.19;;;22.70;30.37
73245;BME280;61460;41.158;-73.238;2023-02-04T02:34:01;102409.60;;;22.35;30.34
73245;BME280;61460;41.158;-73.238;2023-02-04T02:36:31;102397.77;;;22.45;30.36
73245;BME280;61460;41.158;-73.238;2023-02-04T02:39:02;102405.83;;;22.72;29.90
73245;BME280;61460;41.158;-73.238;2023-02-04T02:41:32;102409.31;;;23.11;29.23
73245;BME280;61460;41.158;-73.238;2023-02-04T02:44:03;102409.05;;;22.94;29.55
73245;BME280;61460;41.158;-73.238;2023-02-04T02:46:34;102421.28;;;23.05;29.59
73245;BME280;61460;41.158;-73.238;2023-02-04T02:49:05;102424.59;;;22.57;30.23
73245;BME280;61460;41.158;-73.238;2023-02-04T02:51:35;102422.13;;;22.50;30.18
73245;BME280;61460;41.158;-73.238;2023-02-04T02:54:12;102437.37;;;22.61;29.96
73245;BME280;61460;41.158;-73.238;2023-02-04T02:56:36;102445.89;;;22.79;29.83
73245;BME280;61460;41.158;-73.238;2023-02-04T02:59:12;102467.74;;;23.16;29.15
73245;BME280;61460;41.158;-73.238;2023-02-04T03:01:38;102463.81;;;22.98;29.54
73245;BME280;61460;41.158;-73.238;2023-02-04T03:04:09;102468.26;;;22.99;29.64
73245;BME280;61460;41.158;-73.238;2023-02-04T03:06:39;102476.31;;;22.55;29.94
73245;BME280;61460;41.158;-73.238;2023-02-04T03:09:10;102470.90;;;22.51;29.70
73245;BME280;61460;41.158;-73.238;2023-02-04T03:11:40;102472.51;;;22.44;30.03
73245;BME280;61460;41.158;-73.238;2023-02-04T03:14:11;102470.70;;;22.59;29.55
73245;BME280;61460;41.158;-73.238;2023-02-04T03:16:41;102470.58;;;22.66;29.61
73245;BME280;61460;41.158;-73.238;2023-02-04T03:19:12;102471.56;;;22.69;30.25
73245;BME280;61460;41.158;-73.238;2023-02-04T03:21:43;102485.62;;;22.28;29.96
73245;BME280;61460;41.158;-73.238;2023-02-04T03:24:13;102503.71;;;22.05;29.81
73245;BME280;61460;41.158;-73.238;2023-02-04T03:26:44;102490.84;;;22.20;30.00
73245;BME280;61460;41.158;-73.238;2023-02-04T03:29:15;102485.44;;;22.05;29.99
73245;BME280;61460;41.158;-73.238;2023-02-04T03:31:45;102513.39;;;22.45;29.90
73245;BME280;61460;41.158;-73.238;2023-02-04T03:34:16;102507.01;;;22.32;30.55
73245;BME280;61460;41.158;-73.238;2023-02-04T03:36:47;102512.37;;;22.07;30.04
73245;BME280;61460;41.158;-73.238;2023-02-04T03:39:17;102513.00;;;21.95;29.75
73245;BME280;61460;41.158;-73.238;2023-02-04T03:41:48;102514.04;;;22.05;29.73
73245;BME280;61460;41.158;-73.238;2023-02-04T03:44:18;102515.95;;;21.94;30.09
73245;BME280;61460;41.158;-73.238;2023-02-04T03:46:49;102544.47;;;22.16;29.76
73245;BME280;61460;41.158;-73.238;2023-02-04T03:49:20;102569.06;;;22.22;30.10
73245;BME280;61460;41.158;-73.238;2023-02-04T03:51:50;102588.20;;;21.96;29.86
73245;BME280;61460;41.158;-73.238;2023-02-04T03:54:21;102595.80;;;21.78;30.10
73245;BME280;61460;41.158;-73.238;2023-02-04T03:56:52;102619.69;;;21.94;29.63
73245;BME280;61460;41.158;-73.238;2023-02-04T03:59:22;102633.62;;;22.02;30.21
73245;BME280;61460;41.158;-73.238;2023-02-04T04:01:53;102658.01;;;22.03;29.50
73245;BME280;61460;41.158;-73.238;2023-02-04T04:04:24;102657.77;;;22.03;29.69
73245;BME280;61460;41.158;-73.238;2023-02-04T04:06:54;102678.01;;;21.93;30.18
73245;BME280;61460;41.158;-73.238;2023-02-04T04:09:25;102680.71;;;21.75;29.67
73245;BME280;61460;41.158;-73.238;2023-02-04T04:11:55;102692.14;;;21.67;29.61
73245;BME280;61460;41.158;-73.238;2023-02-04T04:14:26;102705.64;;;21.84;29.18
73245;BME280;61460;41.158;-73.238;2023-02-04T04:16:57;102703.06;;;21.58;29.61
73245;BME280;61460;41.158;-73.238;2023-02-04T04:19:27;102710.84;;;21.90;29.12
73245;BME280;61460;41.158;-73.238;2023-02-04T04:21:58;102723.84;;;21.89;30.15
73245;BME280;61460;41.158;-73.238;2023-02-04T04:24:29;102734.06;;;21.69;29.69
73245;BME280;61460;41.158;-73.238;2023-02-04T04:26:59;102731.19;;;21.69;29.51
73245;BME280;61460;41.158;-73.238;2023-02-04T04:29:30;102742.45;;;21.84;29.25
73245;BME280;61460;41.158;-73.238;2023-02-04T04:32:01;102751.11;;;21.80;29.77
73245;BME280;61460;41.158;-73.238;2023-02-04T04:34:31;102760.16;;;21.70;29.53
73245;BME280;61460;41.158;-73.238;2023-02-04T04:37:02;102765.43;;;21.89;29.56
73245;BME280;61460;41.158;-73.238;2023-02-04T04:39:32;102764.29;;;21.76;29.64
73245;BME280;61460;41.158;-73.238;2023-02-04T04:42:03;102778.58;;;21.77;29.35
73245;BME280;61460;41.158;-73.238;2023-02-04T04:44:34;102774.34;;;21.92;28.92
73245;BME280;61460;41.158;-73.238;2023-02-04T04:47:04;102786.28;;;21.80;29.67
73245;BME280;61460;41.158;-73.238;2023-02-04T04:49:35;102791.64;;;21.67;29.41
73245;BME280;61460;41.158;-73.238;2023-02-04T04:52:06;102785.84;;;21.82;29.69
73245;BME280;61460;41.158;-73.238;2023-02-04T04:54:36;102788.96;;;21.81;29.38
73245;BME280;61460;41.158;-73.238;2023-02-04T04:57:07;102794.80;;;21.72;29.40
73245;BME280;61460;41.158;-73.238;2023-02-04T04:59:38;102803.37;;;21.84;29.08
73245;BME280;61460;41.158;-73.238;2023-02-04T05:02:08;102817.46;;;21.78;29.83
73245;BME280;61460;41.158;-73.238;2023-02-04T05:04:39;102823.53;;;21.72;29.53
73245;BME280;61460;41.158;-73.238;2023-02-04T05:07:09;102840.35;;;21.84;29.61
73245;BME280;61460;41.158;-73.238;2023-02-04T05:09:40;102843.68;;;21.70;29.62
73245;BME280;61460;41.158;-73.238;2023-02-04T05:12:11;102843.58;;;21.74;29.27
73245;BME280;61460;41.158;-73.238;2023-02-04T05:14:41;102852.65;;;21.78;29.13
73245;BME280;61460;41.158;-73.238;2023-02-04T05:17:12;102856.24;;;21.74;29.74
73245;BME280;61460;41.158;-73.238;2023-02-04T05:19:43;102866.91;;;21.70;29.68
73245;BME280;61460;41.158;-73.238;2023-02-04T05:22:13;102872.79;;;21.81;29.55
73245;BME280;61460;41.158;-73.238;2023-02-04T05:24:44;102882.25;;;21.67;29.54
73245;BME280;61460;41.158;-73.238;2023-02-04T05:27:15;102880.50;;;21.63;29.28
73245;BME280;61460;41.158;-73.238;2023-02-04T05:29:45;102892.61;;;21.70;29.16
73245;BME280;61460;41.158;-73.238;2023-02-04T05:32:16;102908.78;;;21.63;29.89
73245;BME280;61460;41.158;-73.238;2023-02-04T05:34:46;102917.86;;;21.63;29.89
73245;BME280;61460;41.158;-73.238;2023-02-04T05:37:17;102923.24;;;21.67;29.72
73245;BME280;61460;41.158;-73.238;2023-02-04T05:39:48;102925.17;;;21.69;29.29
73245;BME280;61460;41.158;-73.238;2023-02-04T05:42:18;102938.17;;;21.63;29.24
73245;BME280;61460;41.158;-73.238;2023-02-04T05:44:49;102938.70;;;21.65;29.99
73245;BME280;61460;41.158;-73.238;2023-02-04T05:47:20;102941.01;;;21.51;30.20
73245;BME280;61460;41.158;-73.238;2023-02-04T05:49:50;102937.16;;;21.76;29.59
73245;BME280;61460;41.158;-73.238;2023-02-04T05:52:21;102953.96;;;21.72;29.66
73245;BME280;61460;41.158;-73.238;2023-02-04T05:54:52;102950.92;;;21.61;29.58
73245;BME280;61460;41.158;-73.238;2023-02-04T05:57:22;102958.47;;;21.71;29.42
73245;BME280;61460;41.158;-73.238;2023-02-04T05:59:53;102956.96;;;21.67;30.22
73245;BME280;61460;41.158;-73.238;2023-02-04T06:02:24;102955.87;;;21.52;29.85
73245;BME280;61460;41.158;-73.238;2023-02-04T06:04:54;102965.42;;;21.76;29.71
73245;BME280;61460;41.158;-73.238;2023-02-04T06:07:25;102962.56;;;21.64;29.51
73245;BME280;61460;41.158;-73.238;2023-02-04T06:09:55;102967.51;;;21.67;29.32
73245;BME280;61460;41.158;-73.238;2023-02-04T06:12:26;102963.30;;;21.64;29.63
73245;BME280;61460;41.158;-73.238;2023-02-04T06:14:57;102972.79;;;21.54;30.19
73245;BME280;61460;41.158;-73.238;2023-02-04T06:17:27;102973.36;;;21.72;29.69
73245;BME280;61460;41.158;-73.238;2023-02-04T06:19:58;102982.85;;;21.75;29.54
73245;BME280;61460;41.158;-73.238;2023-02-04T06:22:28;102988.62;;;21.71;29.32
73245;BME280;61460;41.158;-73.238;2023-02-04T06:24:59;102976.32;;;21.72;29.07
73245;BME280;61460;41.158;-73.238;2023-02-04T06:27:30;102997.40;;;21.74;29.38
73245;BME280;61460;41.158;-73.238;2023-02-04T06:30:00;102995.31;;;21.60;29.45
73245;BME280;61460;41.158;-73.238;2023-02-04T06:32:31;103005.63;;;21.81;29.24
73245;BME280;61460;41.158;-73.238;2023-02-04T06:35:02;103006.23;;;21.67;29.22
73245;BME280;61460;41.158;-73.238;2023-02-04T06:37:32;103024.27;;;21.63;29.03
73245;BME280;61460;41.158;-73.238;2023-02-04T06:40:03;103028.17;;;21.72;29.00
73245;BME280;61460;41.158;-73.238;2023-02-04T06:42:33;103041.95;;;21.52;29.32
73245;BME280;61460;41.158;-73.238;2023-02-04T06:45:05;103040.29;;;21.77;29.27
73245;BME280;61460;41.158;-73.238;2023-02-04T06:47:35;103055.13;;;21.64;29.22
73245;BME280;61460;41.158;-73.238;2023-02-04T06:50:06;103054.56;;;21.62;29.00
73245;BME280;61460;41.158;-73.238;2023-02-04T06:52:36;103061.06;;;21.75;28.69
73245;BME280;61460;41.158;-73.238;2023-02-04T06:55:07;103068.12;;;21.74;29.03
73245;BME280;61460;41.158;-73.238;2023-02-04T06:57:37;103082.67;;;21.49;29.10
73245;BME280;61460;41.158;-73.238;2023-02-04T07:00:11;103090.16;;;21.81;28.93
73245;BME280;61460;41.158;-73.238;2023-02-04T07:02:38;103095.76;;;21.65;29.03
73245;BME280;61460;41.158;-73.238;2023-02-04T07:05:09;103090.81;;;21.63;28.98
73245;BME280;61460;41.158;-73.238;2023-02-04T07:07:40;103094.56;;;21.80;28.55
73245;BME280;61460;41.158;-73.238;2023-02-04T07:10:10;103103.14;;;21.69;28.77
73245;BME280;61460;41.158;-73.238;2023-02-04T07:12:41;103107.43;;;21.65;28.91
73245;BME280;61460;41.158;-73.238;2023-02-04T07:15:12;103108.02;;;21.65;29.07
73245;BME280;61460;41.158;-73.238;2023-02-04T07:17:42;103114.87;;;21.63;28.84
73245;BME280;61460;41.158;-73.238;2023-02-04T07:20:13;103115.56;;;21.62;28.74
73245;BME280;61460;41.158;-73.238;2023-02-04T07:22:43;103119.96;;;21.62;29.24
73245;BME280;61460;41.158;-73.238;2023-02-04T07:25:14;103110.64;;;21.33;29.43
73245;BME280;61460;41.158;-73.238;2023-02-04T07:27:44;103116.91;;;21.67;29.42
73245;BME280;61460;41.158;-73.238;2023-02-04T07:30:16;103115.57;;;21.56;29.08
73245;BME280;61460;41.158;-73.238;2023-02-04T07:32:46;103116.05;;;21.51;28.83
73245;BME280;61460;41.158;-73.238;2023-02-04T07:35:16;103114.95;;;21.64;28.59
73245;BME280;61460;41.158;-73.238;2023-02-04T07:37:47;103119.03;;;21.57;29.57
73245;BME280;61460;41.158;-73.238;2023-02-04T07:40:18;103119.25;;;21.39;29.06
73245;BME280;61460;41.158;-73.238;2023-02-04T07:42:48;103114.88;;;21.59;28.90
73245;BME280;61460;41.158;-73.238;2023-02-04T07:45:19;103116.92;;;21.53;28.70
73245;BME280;61460;41.158;-73.238;2023-02-04T07:47:49;103120.32;;;21.55;28.41
73245;BME280;61460;41.158;-73.238;2023-02-04T07:50:20;103135.69;;;21.47;28.85
73245;BME280;61460;41.158;-73.238;2023-02-04T07:52:51;103132.54;;;21.33;28.91
73245;BME280;61460;41.158;-73.238;2023-02-04T07:55:21;103139.17;;;21.65;28.89
73245;BME280;61460;41.158;-73.238;2023-02-04T07:57:52;103133.53;;;21.52;28.71
73245;BME280;61460;41.158;-73.238;2023-02-04T08:00:23;103119.69;;;21.45;28.44
73245;BME280;61460;41.158;-73.238;2023-02-04T08:02:53;103118.40;;;21.45;28.46
73245;BME280;61460;41.158;-73.238;2023-02-04T08:05:24;103119.84;;;21.26;28.78
73245;BME280;61460;41.158;-73.238;2023-02-04T08:07:55;103121.93;;;21.48;28.44
73245;BME280;61460;41.158;-73.238;2023-02-04T08:10:25;103119.54;;;21.46;28.66
73245;BME280;61460;41.158;-73.238;2023-02-04T08:12:56;103103.44;;;21.47;28.35
73245;BME280;61460;41.158;-73.238;2023-02-04T08:15:26;103109.19;;;21.52;28.20
73245;BME280;61460;41.158;-73.238;2023-02-04T08:17:57;103112.85;;;21.50;29.22
73245;BME280;61460;41.158;-73.238;2023-02-04T08:20:28;103120.58;;;21.41;28.88
73245;BME280;61460;41.158;-73.238;2023-02-04T08:22:58;103128.43;;;21.65;28.85
73245;BME280;61460;41.158;-73.238;2023-02-04T08:25:29;103121.32;;;21.47;28.48
73245;BME280;61460;41.158;-73.238;2023-02-04T08:27:59;103120.46;;;21.46;28.25
73245;BME280;61460;41.158;-73.238;2023-02-04T08:30:30;103137.15;;;21.55;28.11
73245;BME280;61460;41.158;-73.238;2023-02-04T08:33:01;103140.50;;;21.18;29.11
73245;BME280;61460;41.158;-73.238;2023-02-04T08:35:31;103134.07;;;21.49;28.65
73245;BME280;61460;41.158;-73.238;2023-02-04T08:38:02;103134.45;;;21.49;28.61
73245;BME280;61460;41.158;-73.238;2023-02-04T08:40:33;103140.64;;;21.45;28.35
73245;BME280;61460;41.158;-73.238;2023-02-04T08:43:03;103142.16;;;21.45;28.17
73245;BME280;61460;41.158;-73.238;2023-02-04T08:45:34;103149.09;;;21.18;28.54
73245;BME280;61460;41.158;-73.238;2023-02-04T08:48:05;103148.49;;;21.47;28.34
73245;BME280;61460;41.158;-73.238;2023-02-04T08:50:35;103166.18;;;21.54;28.47
73245;BME280;61460;41.158;-73.238;2023-02-04T08:53:06;103177.48;;;21.38;28.47
73245;BME280;61460;41.158;-73.238;2023-02-04T08:55:36;103170.99;;;21.46;28.11
73245;BME280;61460;41.158;-73.238;2023-02-04T08:58:07;103181.90;;;21.43;28.16
73245;BME280;61460;41.158;-73.238;2023-02-04T09:00:37;103184.33;;;21.20;28.60
73245;BME280;61460;41.158;-73.238;2023-02-04T09:03:08;103183.12;;;21.51;28.11
73245;BME280;61460;41.158;-73.238;2023-02-04T09:05:39;103197.30;;;21.44;28.32
73245;BME280;61460;41.158;-73.238;2023-02-04T09:08:09;103199.38;;;21.43;28.16
73245;BME280;61460;41.158;-73.238;2023-02-04T09:10:40;103206.12;;;21.43;27.95
73245;BME280;61460;41.158;-73.238;2023-02-04T09:13:11;103214.57;;;21.38;28.22
73245;BME280;61460;41.158;-73.238;2023-02-04T09:15:41;103210.63;;;21.38;28.06
73245;BME280;61460;41.158;-73.238;2023-02-04T09:18:12;103210.41;;;21.37;28.47
73245;BME280;61460;41.158;-73.238;2023-02-04T09:20:43;103213.47;;;21.38;28.18
73245;BME280;61460;41.158;-73.238;2023-02-04T09:23:14;103226.64;;;21.34;27.97
73245;BME280;61460;41.158;-73.238;2023-02-04T09:25:44;103231.56;;;21.38;27.92
73245;BME280;61460;41.158;-73.238;2023-02-04T09:28:15;103238.96;;;20.97;28.54
73245;BME280;61460;41.158;-73.238;2023-02-04T09:30:46;103248.63;;;21.44;28.02
73245;BME280;61460;41.158;-73.238;2023-02-04T09:33:16;103254.39;;;21.31;28.24
73245;BME280;61460;41.158;-73.238;2023-02-04T09:35:47;103255.22;;;21.26;28.05
73245;BME280;61460;41.158;-73.238;2023-02-04T09:38:17;103269.10;;;21.34;28.03
73245;BME280;61460;41.158;-73.238;2023-02-04T09:40:52;103276.64;;;21.11;28.49
73245;BME280;61460;41.158;-73.238;2023-02-04T09:43:23;103278.58;;;21.28;28.26
73245;BME280;61460;41.158;-73.238;2023-02-04T09:45:49;103288.13;;;21.46;28.80
73245;BME280;61460;41.158;-73.238;2023-02-04T09:48:20;103302.95;;;21.25;28.37
73245;BME280;61460;41.158;-73.238;2023-02-04T09:50:51;103300.70;;;21.20;28.18
73245;BME280;61460;41.158;-73.238;2023-02-04T09:53:23;103315.03;;;21.27;28.04
73245;BME280;61460;41.158;-73.238;2023-02-04T09:55:52;103319.49;;;21.32;28.84
73245;BME280;61460;41.158;-73.238;2023-02-04T09:58:23;103325.93;;;21.00;28.48
73245;BME280;61460;41.158;-73.238;2023-02-04T10:00:58;103333.02;;;21.18;28.51
73245;BME280;61460;41.158;-73.238;2023-02-04T10:03:24;103326.42;;;21.14;28.20
73245;BME280;61460;41.158;-73.238;2023-02-04T10:05:54;103309.68;;;21.13;27.91
73245;BME280;61460;41.158;-73.238;2023-02-04T10:08:28;103319.31;;;21.11;28.48
73245;BME280;61460;41.158;-73.238;2023-02-04T10:10:56;103306.66;;;21.10;28.07
73245;BME280;61460;41.158;-73.238;2023-02-04T10:13:31;103300.46;;;21.23;28.43
73245;BME280;61460;41.158;-73.238;2023-02-04T10:15:58;103304.60;;;21.12;28.34
73245;BME280;61460;41.158;-73.238;2023-02-04T10:18:30;103305.17;;;21.20;27.92
73245;BME280;61460;41.158;-73.238;2023-02-04T10:21:10;103308.65;;;21.07;27.83
73245;BME280;61460;41.158;-73.238;2023-02-04T10:23:29;103313.03;;;21.11;28.30
73245;BME280;61460;41.158;-73.238;2023-02-04T10:25:59;103321.41;;;20.95;28.11
73245;BME280;61460;41.158;-73.238;2023-02-04T10:28:33;103330.80;;;21.22;28.32
73245;BME280;61460;41.158;-73.238;2023-02-04T10:31:01;103330.67;;;21.10;28.12
73245;BME280;61460;41.158;-73.238;2023-02-04T10:33:31;103339.12;;;21.18;27.88
73245;BME280;61460;41.158;-73.238;2023-02-04T10:36:04;103347.32;;;21.20;28.24
73245;BME280;61460;41.158;-73.238;2023-02-04T10:38:33;103338.67;;;21.03;28.37
73245;BME280;61460;41.158;-73.238;2023-02-04T10:41:04;103353.24;;;21.16;28.16
73245;BME280;61460;41.158;-73.238;2023-02-04T10:43:34;103356.18;;;21.17;28.31
73245;BME280;61460;41.158;-73.238;2023-02-04T10:46:04;103359.12;;;20.98;28.21
73245;BME280;61460;41.158;-73.238;2023-02-04T10:48:39;103362.93;;;21.11;28.11
73245;BME280;61460;41.158;-73.238;2023-02-04T10:51:10;103368.19;;;21.01;28.81
73245;BME280;61460;41.158;-73.238;2023-02-04T10:53:37;103375.40;;;21.15;28.28
73245;BME280;61460;41.158;-73.238;2023-02-04T10:56:15;103370.07;;;21.17;28.30
73245;BME280;61460;41.158;-73.238;2023-02-04T10:58:38;103368.18;;;21.08;28.09
73245;BME280;61460;41.158;-73.238;2023-02-04T11:01:09;103379.30;;;21.07;27.94
73245;BME280;61460;41.158;-73.238;2023-02-04T11:03:40;103387.51;;;21.04;28.61
73245;BME280;61460;41.158;-73.238;2023-02-04T11:06:12;103402.91;;;20.92;28.18
73245;BME280;61460;41.158;-73.238;2023-02-04T11:08:40;103407.26;;;21.26;28.03
73245;BME280;61460;41.158;-73.238;2023-02-04T11:11:15;103407.97;;;21.07;28.15
73245;BME280;61460;41.158;-73.238;2023-02-04T11:13:43;103415.01;;;21.07;27.75
73245;BME280;61460;41.158;-73.238;2023-02-04T11:18:46;103446.90;;;21.03;27.84
73245;BME280;61460;41.158;-73.238;2023-02-04T11:23:44;103458.87;;;21.22;27.88
73245;BME280;61460;41.158;-73.238;2023-02-04T11:26:17;103479.19;;;21.07;27.70
73245;BME280;61460;41.158;-73.238;2023-02-04T11:28:49;103489.34;;;21.09;27.42
73245;BME280;61460;41.158;-73.238;2023-02-04T11:33:48;103512.55;;;20.90;27.86
73245;BME280;61460;41.158;-73.238;2023-02-04T11:36:18;103513.09;;;21.13;27.83
73245;BME280;61460;41.158;-73.238;2023-02-04T11:38:49;103527.84;;;20.99;27.88
73245;BME280;61460;41.158;-73.238;2023-02-04T11:41:26;103516.66;;;20.86;27.72
73245;BME280;61460;41.158;-73.238;2023-02-04T11:43:50;103508.35;;;21.07;27.81
73245;BME280;61460;41.158;-73.238;2023-02-04T11:46:20;103509.80;;;20.83;27.84
73245;BME280;61460;41.158;-73.238;2023-02-04T11:48:51;103512.67;;;21.16;27.74
73245;BME280;61460;41.158;-73.238;2023-02-04T11:51:29;103515.31;;;20.93;27.85
73245;BME280;61460;41.158;-73.238;2023-02-04T11:53:52;103511.20;;;20.91;27.62
73245;BME280;61460;41.158;-73.238;2023-02-04T11:56:23;103509.94;;;20.88;27.67
73245;BME280;61460;41.158;-73.238;2023-02-04T11:58:56;103511.36;;;20.78;27.82
73245;BME280;61460;41.158;-73.238;2023-02-04T12:01:29;103517.83;;;20.97;27.55
73245;BME280;61460;41.158;-73.238;2023-02-04T12:03:56;103522.54;;;21.00;27.86
73245;BME280;61460;41.158;-73.238;2023-02-04T12:06:27;103530.15;;;20.91;27.78
73245;BME280;61460;41.158;-73.238;2023-02-04T12:09:04;103547.08;;;20.81;27.70
73245;BME280;61460;41.158;-73.238;2023-02-04T12:11:28;103562.76;;;20.97;28.56
73245;BME280;61460;41.158;-73.238;2023-02-04T12:14:04;103570.32;;;21.11;28.51
73245;BME280;61460;41.158;-73.238;2023-02-04T12:16:28;103583.56;;;21.25;28.50
73245;BME280;61460;41.158;-73.238;2023-02-04T12:18:58;103586.04;;;21.13;28.11
73245;BME280;61460;41.158;-73.238;2023-02-04T12:21:29;103590.44;;;21.09;27.68
73245;BME280;61460;41.158;-73.238;2023-02-04T12:24:00;103593.83;;;21.05;27.37
73245;BME280;61460;41.158;-73.238;2023-02-04T12:26:30;103602.18;;;21.18;27.18
73245;BME280;61460;41.158;-73.238;2023-02-04T12:29:01;103605.63;;;21.04;27.84
73245;BME280;61460;41.158;-73.238;2023-02-04T12:31:32;103610.51;;;21.13;28.02
73245;BME280;61460;41.158;-73.238;2023-02-04T12:34:02;103616.50;;;21.07;27.59
73245;BME280;61460;41.158;-73.238;2023-02-04T12:36:33;103622.67;;;21.00;27.38
73245;BME280;61460;41.158;-73.238;2023-02-04T12:39:04;103631.13;;;20.95;27.38
73245;BME280;61460;41.158;-73.238;2023-02-04T12:41:34;103641.34;;;21.05;27.13
73245;BME280;61460;41.158;-73.238;2023-02-04T12:44:05;103643.38;;;21.06;27.62
73245;BME280;61460;41.158;-73.238;2023-02-04T12:46:36;103649.92;;;21.15;27.55
73245;BME280;61460;41.158;-73.238;2023-02-04T12:49:06;103645.60;;;21.20;28.02
73245;BME280;61460;41.158;-73.238;2023-02-04T12:51:37;103655.72;;;21.03;27.48
73245;BME280;61460;41.158;-73.238;2023-02-04T12:54:08;103662.60;;;21.05;27.24
73245;BME280;61460;41.158;-73.238;2023-02-04T12:56:38;103663.40;;;21.05;27.15